Terminal Aerodrome Forecast
Issued by NWS

Current Version | Previous Version | Graphics & Text | Print | Product List | Glossary On
Versions: 1 2 3 4 5 6 7 8 9 10 11 12 13 14 15 16 17 18 19 20 21 22 23
000
FTUS41 KILN 160500
TAFLCK
TAF
KLCK 160534Z 1606/1706 34006KT 4SM -DZ BR OVC012
     FM160900 36008KT 4SM BR OVC006
     FM161500 01008KT P6SM OVC012
     FM161700 01008KT P6SM BKN025
     FM161900 36004KT P6SM SCT035
     FM170000 VRB02KT P6SM SKC=

USA.gov is the U.S. government's official web portal to all federal, state and local government web resources and services.